Jamestown Regional Airport
KJMS : rendu visible

Aérodrome :











RETROUVEZ-NOUS SUR...

 
LOGIN :

S'inscrire | Disclaimer

   EN    FR    IT 

 









Légende :    VFR   VFR Marginal   IFR   IFR Intensif   IFR Très Intensif
Visi : 
Plafond : 
>= 8 km
>= 3000ft
5 à 8 km
1000 à 3000 ft
1500m à 5 km
500 à 1000 ft
800 à 1500m
200 à 500 ft
< 800m
< 200 ft
Symboles :   Orages  Brouillard  Fortes neiges  Fortes précipitations  Vent > 20 kt







- Altitude de l'aérodrome : 1500 ft
- Code IATA : JMS


KJMS - Jamestown Regional

DERNIER METAR :
  • 240456Z AUTO 11005KT 10SM CLR 06/06 A3005 RMK AO2 SLP184 T00560056

METARs EXPIRÉS :
  • 240356Z AUTO 06004KT 10SM CLR 07/07 A3004 RMK AO2 SLP180 T00720067
  • 240256Z AUTO 14005KT 10SM OVC040 10/08 A3007 RMK AO2 SLP189 T01000078 55001

TAF KJMS
Valide du 24 à 06h jusqu'au 25 à 06h UTC


240522Z 2406/2506 11006KT P6SM SCT024 BKN050
FM240800 12007KT 6SM -SHRA BR SCT015 OVC027
FM241200 12012KT 5SM SHRA BR BKN008 OVC015
FM241800 15012KT P6SM SCT007 OVC013
FM242000 18011KT P6SM VCSH SCT012 OVC028
FM242200 20012KT 6SM -SHRA BR VCTS BKN021CB
FM250000 24014KT P6SM BKN028
FIR KZMP / Amérique du Nord



MET'MAP, la Météo Aéronautique d'un coup d'oeil ! - Copyright ORBIFLY Décembre 2007 - Disclaimer

ORBIFLY MET'MAP TEAM :

Programmation & Développement : Alexandra Zaïnal
Conception & Développement : Baudouin d'Aumeries
Co-Programmation & Développement : Marc-Olivier Méhu
Soutien technique & logistique : Manuel Goepfert

Contact : metmap@orbifly.com




SOURCES & CREDITS :

   NOAA       Earth
Advisory